createdAt,value
2022-08-31T00:00:33.794Z,7.07
2022-08-31T00:03:19.766Z,7.70
2022-08-31T00:05:48.604Z,7.38
2022-08-31T00:08:17.328Z,6.45
2022-08-31T00:10:47.954Z,6.65
2022-08-31T00:13:18.166Z,5.95
2022-08-31T00:15:46.794Z,7.88
2022-08-31T00:18:15.667Z,8.30
2022-08-31T00:20:44.779Z,6.70
2022-08-31T00:23:15.095Z,7.50
2022-08-31T00:25:47.809Z,5.88
2022-08-31T00:28:17.926Z,6.93
2022-08-31T00:30:47.742Z,7.60
2022-08-31T00:33:17.200Z,6.55
2022-08-31T00:35:46.078Z,7.07
2022-08-31T00:38:15.292Z,7.40
2022-08-31T00:40:47.736Z,8.10
2022-08-31T00:43:39.110Z,7.50
2022-08-31T00:46:09.618Z,7.32
2022-08-31T00:48:42.394Z,8.57
2022-08-31T00:51:11.344Z,7.90
2022-08-31T00:53:45.304Z,7.65
2022-08-31T00:56:15.645Z,7.82
2022-08-31T00:58:45.470Z,7.53
2022-08-31T01:01:23.935Z,7.30
2022-08-31T01:03:52.681Z,8.32
2022-08-31T01:06:21.786Z,8.43
2022-08-31T01:08:50.166Z,6.30
2022-08-31T01:11:21.124Z,7.30
2022-08-31T01:13:49.616Z,6.60
2022-08-31T01:16:23.449Z,6.70
2022-08-31T01:18:54.529Z,6.75
2022-08-31T01:21:27.734Z,6.93
2022-08-31T01:24:00.681Z,6.57
2022-08-31T01:26:32.153Z,6.82
2022-08-31T01:29:05.761Z,8.35
2022-08-31T01:31:37.015Z,8.05
2022-08-31T01:34:05.541Z,7.22
2022-08-31T01:36:35.517Z,7.68
2022-08-31T01:39:06.345Z,8.05
2022-08-31T01:41:34.833Z,9.52
2022-08-31T01:44:03.539Z,7.53
2022-08-31T01:46:31.922Z,7.00
2022-08-31T01:49:02.012Z,7.63
2022-08-31T01:51:30.272Z,9.00
2022-08-31T01:53:58.920Z,8.30
2022-08-31T01:56:30.931Z,7.32
2022-08-31T01:59:07.628Z,6.97
2022-08-31T02:01:58.947Z,6.30
2022-08-31T02:04:30.145Z,6.53
2022-08-31T02:07:00.669Z,6.80
2022-08-31T02:09:30.450Z,7.13
2022-08-31T02:12:01.661Z,7.95
2022-08-31T02:14:29.903Z,7.65
2022-08-31T02:16:58.507Z,9.90
2022-08-31T02:19:27.591Z,11.35
2022-08-31T02:21:58.065Z,10.23
2022-08-31T02:24:26.305Z,9.45
2022-08-31T02:26:57.569Z,9.73
2022-08-31T02:29:28.628Z,8.98
2022-08-31T02:31:58.675Z,9.02
2022-08-31T02:34:28.045Z,8.38
2022-08-31T02:36:56.660Z,9.15
2022-08-31T02:39:25.688Z,8.15
2022-08-31T02:41:56.221Z,9.25
2022-08-31T02:44:24.702Z,8.38
2022-08-31T02:46:54.883Z,7.75
2022-08-31T02:49:43.130Z,9.77
2022-08-31T02:52:12.552Z,8.27
2022-08-31T02:54:42.208Z,8.65
2022-08-31T02:57:10.755Z,10.10
2022-08-31T02:59:39.277Z,9.23
2022-08-31T03:02:09.926Z,8.30
2022-08-31T03:04:40.085Z,8.82
2022-08-31T03:07:08.489Z,8.18
2022-08-31T03:09:37.522Z,9.02
2022-08-31T03:12:06.232Z,9.52
2022-08-31T03:14:34.625Z,8.77
2022-08-31T03:17:03.640Z,9.43
2022-08-31T03:19:34.575Z,9.13
2022-08-31T03:22:04.993Z,9.07
2022-08-31T03:24:33.518Z,10.02
2022-08-31T03:27:01.813Z,8.75
2022-08-31T03:29:30.092Z,9.57
2022-08-31T03:32:15.113Z,8.43
2022-08-31T03:34:47.807Z,9.20
2022-08-31T03:37:16.422Z,8.25
2022-08-31T03:39:45.276Z,7.88
2022-08-31T03:42:13.754Z,9.65
2022-08-31T03:44:42.211Z,9.63
2022-08-31T03:47:18.795Z,10.38
2022-08-31T03:49:48.870Z,9.32
2022-08-31T03:52:23.621Z,10.77
2022-08-31T03:55:03.200Z,9.18
2022-08-31T03:57:31.531Z,10.25
2022-08-31T04:00:00.932Z,10.05
2022-08-31T04:02:45.024Z,10.90
2022-08-31T04:05:35.861Z,11.23
2022-08-31T04:08:23.959Z,12.27
2022-08-31T04:11:15.870Z,11.73
2022-08-31T04:14:02.798Z,9.75
2022-08-31T04:16:37.911Z,10.75
2022-08-31T04:19:25.837Z,11.57
2022-08-31T04:22:10.529Z,10.10
2022-08-31T04:24:43.343Z,11.20
2022-08-31T04:27:11.654Z,11.02
2022-08-31T04:29:40.352Z,9.70
2022-08-31T04:32:08.768Z,10.48
2022-08-31T04:34:38.268Z,10.05
2022-08-31T04:37:08.885Z,9.38
2022-08-31T04:39:50.961Z,10.55
2022-08-31T04:42:20.119Z,10.75
2022-08-31T04:44:48.911Z,12.07
2022-08-31T04:47:17.922Z,10.88
2022-08-31T04:49:46.167Z,10.68
2022-08-31T04:52:14.446Z,10.80
2022-08-31T04:54:44.181Z,10.75
2022-08-31T04:57:12.571Z,10.68
2022-08-31T04:59:40.830Z,10.52
2022-08-31T05:02:38.501Z,10.27
2022-08-31T05:07:45.815Z,9.95
2022-08-31T05:10:15.852Z,10.15
2022-08-31T05:12:45.525Z,9.98
2022-08-31T05:15:15.066Z,9.77
2022-08-31T05:17:43.496Z,10.25
2022-08-31T05:20:11.983Z,11.65
2022-08-31T05:22:41.199Z,11.00
2022-08-31T05:25:10.273Z,9.70
2022-08-31T05:27:41.315Z,11.35
2022-08-31T05:30:11.020Z,9.98
2022-08-31T05:32:50.020Z,11.75
2022-08-31T05:35:18.762Z,10.00
2022-08-31T05:37:48.352Z,9.70
2022-08-31T05:40:16.722Z,9.52
2022-08-31T05:42:47.741Z,9.63
2022-08-31T05:45:18.117Z,10.43
2022-08-31T05:47:48.312Z,9.70
2022-08-31T05:50:18.608Z,9.30
2022-08-31T05:52:47.519Z,10.07
2022-08-31T05:55:16.007Z,8.13
2022-08-31T05:57:44.528Z,8.65
2022-08-31T06:00:15.737Z,9.45
2022-08-31T06:02:53.832Z,8.57
2022-08-31T06:05:22.479Z,9.75
2022-08-31T06:07:52.697Z,9.80
2022-08-31T06:10:22.099Z,7.80
2022-08-31T06:12:50.478Z,8.40
2022-08-31T06:15:21.206Z,7.75
2022-08-31T06:17:49.494Z,8.60
2022-08-31T06:20:18.424Z,8.68
2022-08-31T06:22:49.478Z,8.82
2022-08-31T06:25:29.401Z,8.43
2022-08-31T06:27:59.555Z,8.45
2022-08-31T06:30:29.399Z,8.13
2022-08-31T06:32:58.860Z,7.28
2022-08-31T06:35:41.020Z,7.20
2022-08-31T06:38:32.153Z,7.73
2022-08-31T06:41:23.826Z,8.75
2022-08-31T06:44:13.950Z,7.63
2022-08-31T06:46:59.539Z,7.57
2022-08-31T06:49:33.569Z,8.55
2022-08-31T06:52:01.975Z,7.80
2022-08-31T06:54:32.596Z,7.90
2022-08-31T06:57:19.802Z,7.07
2022-08-31T07:00:08.413Z,7.05
2022-08-31T07:02:57.312Z,7.88
2022-08-31T07:05:27.020Z,7.57
2022-08-31T07:07:56.044Z,7.35
2022-08-31T07:10:24.383Z,8.48
2022-08-31T07:12:52.950Z,8.63
2022-08-31T07:15:21.385Z,7.95
2022-08-31T07:17:51.816Z,7.75
2022-08-31T07:20:21.438Z,7.78
2022-08-31T07:22:50.414Z,7.00
2022-08-31T07:25:34.722Z,7.07
2022-08-31T07:28:03.152Z,8.50
2022-08-31T07:30:42.795Z,8.23
2022-08-31T07:33:16.952Z,8.65
2022-08-31T07:35:52.067Z,8.75
2022-08-31T07:38:44.375Z,7.18
2022-08-31T07:41:30.171Z,7.53
2022-08-31T07:43:59.733Z,8.30
2022-08-31T07:46:30.145Z,8.50
2022-08-31T07:49:00.816Z,8.25
2022-08-31T07:51:56.019Z,7.68
2022-08-31T07:54:44.425Z,8.15
2022-08-31T07:57:25.994Z,8.18
2022-08-31T07:59:56.396Z,7.63
2022-08-31T08:02:24.967Z,7.00
2022-08-31T08:04:55.274Z,6.93
2022-08-31T08:08:00.269Z,6.88
2022-08-31T08:10:52.142Z,7.95
2022-08-31T08:13:39.531Z,7.30
2022-08-31T08:16:35.092Z,6.60
2022-08-31T08:19:18.853Z,7.32
2022-08-31T08:21:49.757Z,6.93
2022-08-31T08:24:23.321Z,7.18
2022-08-31T08:27:05.568Z,7.15
2022-08-31T08:30:14.515Z,6.82
2022-08-31T08:32:48.206Z,6.10
2022-08-31T08:35:17.821Z,7.28
2022-08-31T08:37:58.339Z,7.13
2022-08-31T08:40:34.145Z,7.13
2022-08-31T08:43:06.164Z,6.75
2022-08-31T08:45:36.524Z,6.47
2022-08-31T08:48:12.174Z,6.82
2022-08-31T08:50:44.274Z,7.13
2022-08-31T08:53:27.236Z,6.40
2022-08-31T08:56:31.758Z,6.32
2022-08-31T08:59:01.331Z,6.57
2022-08-31T09:01:37.636Z,6.30
2022-08-31T09:04:13.132Z,6.80
2022-08-31T09:07:17.248Z,7.20
2022-08-31T09:09:58.392Z,7.10
2022-08-31T09:12:36.338Z,6.00
2022-08-31T09:15:54.040Z,5.78
2022-08-31T09:18:36.090Z,5.88
2022-08-31T09:21:22.319Z,6.72
2022-08-31T09:24:01.688Z,6.28
2022-08-31T09:26:55.440Z,6.82
2022-08-31T09:29:45.152Z,5.60
2022-08-31T09:32:17.958Z,6.53
2022-08-31T09:34:55.651Z,5.50
2022-08-31T09:37:26.874Z,5.78
2022-08-31T09:39:56.091Z,5.70
2022-08-31T09:42:31.542Z,6.00
2022-08-31T09:45:02.835Z,5.80
2022-08-31T09:47:51.147Z,5.70
2022-08-31T09:50:32.828Z,5.30
2022-08-31T09:53:31.155Z,5.78
2022-08-31T09:56:07.577Z,4.82
2022-08-31T09:58:41.475Z,4.80
2022-08-31T10:01:15.155Z,5.47
2022-08-31T10:03:47.714Z,5.68
2022-08-31T10:06:47.301Z,5.10
2022-08-31T10:09:30.323Z,5.30
2022-08-31T10:12:04.430Z,4.32
2022-08-31T10:14:40.831Z,5.80
2022-08-31T10:17:15.366Z,5.05
2022-08-31T10:19:53.435Z,4.35
2022-08-31T10:22:31.182Z,5.40
2022-08-31T10:25:14.690Z,4.25
2022-08-31T10:27:48.991Z,4.25
2022-08-31T10:30:28.616Z,4.15
2022-08-31T10:33:02.310Z,4.72
2022-08-31T10:35:38.045Z,5.22
2022-08-31T10:40:52.464Z,4.18
2022-08-31T10:43:24.044Z,4.18
2022-08-31T10:45:54.905Z,4.20
2022-08-31T10:48:25.502Z,3.78
2022-08-31T10:51:05.979Z,3.92
2022-08-31T10:53:50.617Z,4.22
2022-08-31T10:56:24.852Z,3.40
2022-08-31T10:59:03.662Z,3.40
2022-08-31T11:01:45.210Z,3.85
2022-08-31T11:04:34.511Z,3.47
2022-08-31T11:07:13.338Z,3.67
2022-08-31T11:09:48.946Z,3.75
2022-08-31T11:12:21.769Z,2.88
2022-08-31T11:15:14.817Z,3.60
2022-08-31T11:18:09.146Z,3.13
2022-08-31T11:20:57.035Z,3.67
2022-08-31T11:23:45.198Z,3.13
2022-08-31T11:26:47.277Z,3.20
2022-08-31T11:29:46.635Z,3.58
2022-08-31T11:32:21.785Z,2.90
2022-08-31T11:34:53.748Z,2.75
2022-08-31T11:37:54.516Z,2.85
2022-08-31T11:41:00.423Z,3.13
2022-08-31T11:43:47.041Z,2.72
2022-08-31T11:46:53.126Z,2.45
2022-08-31T11:49:44.369Z,2.85
2022-08-31T11:52:41.044Z,3.40
2022-08-31T11:58:34.292Z,2.85
2022-08-31T12:01:35.084Z,2.78
2022-08-31T12:04:06.692Z,3.03
2022-08-31T12:07:11.288Z,2.55
2022-08-31T12:09:58.359Z,3.10
2022-08-31T12:12:56.159Z,3.58
2022-08-31T12:15:35.689Z,3.35
2022-08-31T12:18:19.096Z,3.38
2022-08-31T12:21:16.775Z,3.42
2022-08-31T12:23:57.209Z,3.30
2022-08-31T12:26:49.972Z,3.33
2022-08-31T12:29:26.427Z,4.05
2022-08-31T12:32:29.824Z,3.40
2022-08-31T12:35:09.642Z,3.53
2022-08-31T12:37:39.862Z,2.80
2022-08-31T12:40:20.415Z,3.20
2022-08-31T12:43:06.513Z,3.65
2022-08-31T12:46:09.730Z,4.25
2022-08-31T12:48:49.005Z,3.78
2022-08-31T12:51:29.203Z,3.60
2022-08-31T12:54:17.408Z,3.83
2022-08-31T12:56:52.934Z,4.53
2022-08-31T12:59:57.304Z,3.45
2022-08-31T13:02:26.186Z,3.75
2022-08-31T13:04:54.872Z,4.30
2022-08-31T13:07:30.174Z,3.63
2022-08-31T13:10:08.527Z,3.67
2022-08-31T13:12:38.099Z,3.92
2022-08-31T13:15:11.362Z,4.03
2022-08-31T13:17:42.731Z,3.25
2022-08-31T13:20:12.529Z,3.88
2022-08-31T13:22:41.443Z,3.60
2022-08-31T13:25:19.336Z,3.90
2022-08-31T13:27:50.897Z,3.70
2022-08-31T13:30:25.429Z,3.72
2022-08-31T13:32:55.480Z,3.50
2022-08-31T13:35:28.249Z,4.05
2022-08-31T13:38:04.731Z,3.95
2022-08-31T13:40:37.293Z,4.50
2022-08-31T13:43:08.648Z,4.90
2022-08-31T13:45:43.193Z,4.25
2022-08-31T13:48:16.087Z,4.10
2022-08-31T13:50:52.591Z,4.13
2022-08-31T13:53:42.257Z,3.58
2022-08-31T13:56:39.288Z,4.18
2022-08-31T14:01:51.031Z,4.45
2022-08-31T14:04:52.749Z,4.00
2022-08-31T14:07:24.012Z,4.32
2022-08-31T14:09:55.655Z,4.50
2022-08-31T14:12:34.942Z,4.18
2022-08-31T14:15:18.572Z,4.40
2022-08-31T14:21:09.933Z,4.45
2022-08-31T14:23:36.104Z,3.83
2022-08-31T14:26:09.035Z,4.13
2022-08-31T14:28:47.470Z,4.82
2022-08-31T14:31:25.113Z,4.90
2022-08-31T14:34:08.253Z,4.63
2022-08-31T14:36:43.704Z,4.53
2022-08-31T14:39:12.184Z,4.50
2022-08-31T14:41:40.562Z,3.83
2022-08-31T14:44:10.057Z,4.03
2022-08-31T14:46:40.534Z,3.65
2022-08-31T14:49:11.018Z,4.55
2022-08-31T14:51:39.447Z,4.47
2022-08-31T14:54:09.049Z,4.72
2022-08-31T14:56:46.854Z,3.95
2022-08-31T14:59:16.886Z,4.78
2022-08-31T15:01:47.140Z,4.90
2022-08-31T15:04:21.825Z,4.25
2022-08-31T15:06:53.917Z,4.43
2022-08-31T15:09:22.888Z,4.00
2022-08-31T15:11:51.434Z,4.55
2022-08-31T15:14:19.761Z,3.70
2022-08-31T15:16:50.934Z,4.30
2022-08-31T15:19:23.086Z,5.15
2022-08-31T15:22:03.078Z,3.95
2022-08-31T15:24:31.732Z,3.95
2022-08-31T15:27:00.167Z,4.20
2022-08-31T15:29:30.438Z,4.43
2022-08-31T15:31:59.988Z,4.43
2022-08-31T15:34:31.699Z,4.35
2022-08-31T15:37:03.015Z,4.05
2022-08-31T15:39:35.657Z,4.57
2022-08-31T15:42:09.197Z,3.90
2022-08-31T15:44:37.873Z,4.32
2022-08-31T15:47:26.207Z,4.90
2022-08-31T15:49:58.736Z,3.70
2022-08-31T15:52:28.288Z,3.55
2022-08-31T15:54:57.601Z,4.00
2022-08-31T15:57:26.054Z,4.22
2022-08-31T15:59:54.493Z,4.55
2022-08-31T16:02:23.006Z,4.38
2022-08-31T16:04:52.123Z,4.60
2022-08-31T16:07:23.292Z,3.90
2022-08-31T16:09:51.676Z,4.22
2022-08-31T16:12:21.375Z,4.50
2022-08-31T16:14:51.928Z,4.53
2022-08-31T16:17:20.400Z,4.72
2022-08-31T16:19:49.508Z,4.28
2022-08-31T16:22:20.959Z,4.30
2022-08-31T16:24:52.173Z,4.03
2022-08-31T16:27:21.180Z,4.70
2022-08-31T16:29:51.007Z,4.45
2022-08-31T16:32:19.517Z,4.10
2022-08-31T16:34:49.177Z,4.40
2022-08-31T16:37:17.549Z,5.35
2022-08-31T16:39:47.387Z,5.93
2022-08-31T16:42:17.718Z,5.78
2022-08-31T16:44:48.008Z,4.95
2022-08-31T16:47:18.777Z,5.50
2022-08-31T16:49:46.945Z,5.53
2022-08-31T16:52:19.258Z,6.57
2022-08-31T16:54:49.263Z,6.32
2022-08-31T16:57:21.171Z,7.03
2022-08-31T16:59:50.415Z,6.22
2022-08-31T17:02:20.966Z,6.63
2022-08-31T17:04:53.092Z,5.70
2022-08-31T17:07:23.869Z,6.10
2022-08-31T17:09:55.971Z,6.95
2022-08-31T17:12:27.575Z,6.78
2022-08-31T17:14:56.202Z,6.93
2022-08-31T17:17:26.524Z,6.43
2022-08-31T17:19:57.260Z,6.80
2022-08-31T17:22:32.451Z,6.70
2022-08-31T17:25:04.723Z,5.82
2022-08-31T17:27:36.101Z,6.78
2022-08-31T17:30:07.988Z,7.60
2022-08-31T17:32:39.485Z,8.25
2022-08-31T17:35:18.542Z,6.43
2022-08-31T17:37:49.100Z,7.68
2022-08-31T17:40:17.842Z,7.40
2022-08-31T17:42:48.624Z,7.00
2022-08-31T17:45:17.691Z,6.55
2022-08-31T17:47:46.189Z,7.47
2022-08-31T17:50:17.839Z,7.10
2022-08-31T17:52:47.456Z,7.65
2022-08-31T17:55:16.060Z,6.97
2022-08-31T17:57:45.269Z,5.97
2022-08-31T18:00:16.947Z,5.18
2022-08-31T18:02:46.093Z,5.25
2022-08-31T18:05:16.481Z,5.90
2022-08-31T18:07:46.073Z,6.25
2022-08-31T18:10:14.832Z,6.20
2022-08-31T18:12:43.541Z,5.50
2022-08-31T18:15:17.344Z,6.15
2022-08-31T18:17:47.754Z,5.78
2022-08-31T18:20:16.770Z,5.72
2022-08-31T18:22:48.880Z,6.35
2022-08-31T18:25:20.145Z,5.90
2022-08-31T18:27:49.007Z,5.40
2022-08-31T18:30:19.370Z,4.90
2022-08-31T18:32:49.332Z,6.05
2022-08-31T18:35:18.190Z,6.10
2022-08-31T18:37:46.590Z,6.35
2022-08-31T18:40:32.668Z,5.63
2022-08-31T18:43:18.569Z,6.50
2022-08-31T18:45:51.508Z,5.35
2022-08-31T18:48:26.263Z,5.55
2022-08-31T18:50:59.052Z,5.60
2022-08-31T18:53:30.449Z,5.72
2022-08-31T18:56:01.197Z,6.47
2022-08-31T18:58:30.606Z,5.80
2022-08-31T19:01:00.527Z,5.45
2022-08-31T19:03:30.310Z,5.38
2022-08-31T19:05:59.322Z,5.38
2022-08-31T19:08:28.134Z,5.95
2022-08-31T19:10:59.070Z,5.22
2022-08-31T19:13:32.154Z,5.53
2022-08-31T19:16:14.771Z,5.60
2022-08-31T19:18:45.512Z,6.05
2022-08-31T19:21:17.105Z,6.18
2022-08-31T19:23:47.125Z,6.47
2022-08-31T19:26:24.501Z,6.82
2022-08-31T19:28:53.730Z,7.00
2022-08-31T19:31:24.747Z,6.13
2022-08-31T19:33:57.121Z,5.85
2022-08-31T19:36:27.654Z,5.85
2022-08-31T19:38:57.364Z,6.07
2022-08-31T19:41:27.519Z,6.80
2022-08-31T19:44:07.706Z,6.10
2022-08-31T19:46:39.265Z,5.63
2022-08-31T19:49:10.531Z,6.55
2022-08-31T19:51:40.310Z,7.68
2022-08-31T19:54:11.831Z,7.72
2022-08-31T19:56:42.993Z,7.47
2022-08-31T19:59:12.091Z,6.72
2022-08-31T20:01:42.008Z,7.18
2022-08-31T20:04:16.666Z,8.40
2022-08-31T20:06:47.687Z,8.13
2022-08-31T20:09:17.913Z,8.30
2022-08-31T20:11:47.702Z,7.68
2022-08-31T20:14:17.448Z,7.82
2022-08-31T20:16:47.237Z,7.47
2022-08-31T20:19:19.175Z,8.27
2022-08-31T20:21:53.476Z,7.13
2022-08-31T20:24:25.563Z,8.30
2022-08-31T20:26:59.981Z,8.13
2022-08-31T20:29:29.882Z,6.90
2022-08-31T20:32:04.203Z,6.85
2022-08-31T20:34:33.138Z,7.30
2022-08-31T20:37:01.686Z,7.70
2022-08-31T20:39:33.026Z,6.82
2022-08-31T20:42:03.439Z,6.10
2022-08-31T20:44:35.056Z,6.72
2022-08-31T20:47:24.268Z,6.13
2022-08-31T20:49:55.295Z,6.60
2022-08-31T20:52:26.108Z,7.53
2022-08-31T20:55:01.701Z,6.55
2022-08-31T20:57:32.888Z,7.25
2022-08-31T21:00:03.150Z,6.72
2022-08-31T21:02:34.369Z,6.25
2022-08-31T21:05:27.102Z,5.97
2022-08-31T21:07:53.649Z,7.35
2022-08-31T21:10:36.322Z,6.03
2022-08-31T21:13:09.346Z,5.93
2022-08-31T21:15:42.219Z,5.53
2022-08-31T21:18:12.223Z,5.82
2022-08-31T21:20:40.926Z,5.85
2022-08-31T21:23:10.583Z,5.82
2022-08-31T21:25:43.988Z,5.65
2022-08-31T21:28:14.751Z,6.75
2022-08-31T21:30:44.039Z,6.57
2022-08-31T21:33:13.860Z,6.47
2022-08-31T21:35:42.113Z,6.53
2022-08-31T21:38:13.396Z,6.65
2022-08-31T21:40:48.943Z,5.75
2022-08-31T21:43:17.388Z,5.65
2022-08-31T21:45:45.636Z,5.95
2022-08-31T21:48:15.357Z,6.30
2022-08-31T21:50:44.443Z,6.22
2022-08-31T21:53:13.068Z,6.45
2022-08-31T21:55:41.357Z,5.90
2022-08-31T21:58:09.570Z,6.00
2022-08-31T22:00:41.972Z,6.13
2022-08-31T22:03:10.683Z,6.50
2022-08-31T22:05:41.877Z,6.43
2022-08-31T22:08:10.570Z,5.93
2022-08-31T22:10:40.971Z,6.50
2022-08-31T22:13:11.506Z,6.53
2022-08-31T22:15:41.579Z,5.57
2022-08-31T22:18:58.161Z,6.25
2022-08-31T22:21:01.198Z,6.38
2022-08-31T22:23:30.171Z,6.38
2022-08-31T22:25:58.494Z,6.20
2022-08-31T22:28:27.703Z,6.35
2022-08-31T22:30:56.987Z,6.40
2022-08-31T22:33:25.410Z,6.43
2022-08-31T22:35:53.699Z,6.30
2022-08-31T22:38:24.045Z,6.22
2022-08-31T22:40:52.796Z,5.95
2022-08-31T22:43:21.281Z,6.82
2022-08-31T22:45:50.466Z,6.07
2022-08-31T22:48:19.231Z,5.53
2022-08-31T22:50:47.714Z,6.07
2022-08-31T22:53:16.507Z,5.78
2022-08-31T22:55:46.017Z,6.57
2022-08-31T22:58:14.845Z,6.10
2022-08-31T23:00:48.073Z,6.28
2022-08-31T23:03:17.026Z,6.85
2022-08-31T23:05:45.967Z,5.85
2022-08-31T23:08:14.888Z,5.47
2022-08-31T23:10:46.985Z,5.53
2022-08-31T23:13:15.266Z,6.00
2022-08-31T23:15:44.317Z,6.20
2022-08-31T23:18:13.606Z,6.18
2022-08-31T23:20:42.082Z,5.90
2022-08-31T23:23:10.637Z,6.22
2022-08-31T23:25:41.134Z,6.35
2022-08-31T23:28:12.528Z,5.80
2022-08-31T23:30:44.766Z,5.70
2022-08-31T23:33:13.180Z,5.80
2022-08-31T23:35:43.233Z,6.57
2022-08-31T23:38:11.739Z,5.88
2022-08-31T23:40:40.044Z,6.43
2022-08-31T23:43:11.039Z,5.80
2022-08-31T23:45:40.998Z,5.95
2022-08-31T23:48:09.540Z,6.82
2022-08-31T23:50:37.974Z,7.03
2022-08-31T23:53:17.495Z,6.65
2022-08-31T23:55:46.396Z,7.00
2022-08-31T23:58:18.091Z,7.65
